Flight Track Log - Related Links

Times and Time Zones

All times are in EDT time to prevent confusion due to time zone crossing. See the DCM331 flight status page for this flight to view local times or setup timezone preferences in your user account.

Time Position Orientation Groundspeed Altitude Reporting Facility
EDT Latitude Longitude Course Direction KTS MPH feet Rate Location/Type
Mon 10:21:10 AM 27.9333 -82.7000 291° West 153 176 700  Level Tampa TRACON
Mon 10:22:16 AM 27.9500 -82.7500 306° West 219 252 3,000 1,988 Climbing Tampa TRACON
Mon 10:23:50 AM 27.9081 -82.8617 247° West 279 321 6,000 2,221 Climbing Miami Center
Mon 10:24:50 AM 27.8778 -82.9397 246° West 284 327 8,700 2,450 Climbing Miami Center
Mon 10:25:50 AM 27.8450 -83.0200 245° Southwest 284 327 10,900 2,150 Climbing Miami Center
Mon 10:26:50 AM 27.8122 -83.1075 247° West 294 338 13,000 1,950 Climbing Miami Center
Mon 10:27:50 AM 27.7708 -83.1919 241° Southwest 299 344 14,800 1,950 Climbing Miami Center
Mon 10:28:50 AM 27.7356 -83.2814 246° West 312 359 16,900 1,700 Climbing Miami Center
Mon 10:29:50 AM 27.7003 -83.3731 247° West 317 365 18,200 1,350 Climbing Miami Center
Mon 10:30:50 AM 27.6808 -83.4775 258° West 325 374 19,600 1,350 Climbing Miami Center
Mon 10:31:50 AM 27.7031 -83.5842 283° West 330 380 20,900 1,300 Climbing Miami Center
Mon 10:32:50 AM 27.7167 -83.6928 278° West 340 391 22,200 1,250 Climbing Miami Center
Mon 10:33:50 AM 27.7319 -83.8086 279° West 361 415 23,400 1,250 Climbing Miami Center
Mon 10:34:50 AM 27.7475 -83.9219 279° West 367 422 24,700 1,300 Climbing Miami Center
Mon 10:35:50 AM 27.7564 -84.0350 275° West 373 429 26,000 1,300 Climbing Miami Center
Mon 10:36:50 AM 27.7714 -84.1508 278° West 373 429 27,300 1,125 Climbing Miami Center
Mon 10:38:46 AM 27.7928 -84.3844 276° West 381 438 29,300 989 Climbing Jacksonville Center
Mon 10:39:46 AM 27.8039 -84.4994 276° West 381 438 30,200 850 Climbing Jacksonville Center
Mon 10:40:46 AM 27.8172 -84.6172 277° West 381 438 31,000 850 Climbing Jacksonville Center
Mon 10:41:46 AM 27.8364 -84.7347 280° West 381 438 31,900 800 Climbing Jacksonville Center
Mon 10:42:46 AM 27.8408 -84.8450 273° West 387 445 32,600 750 Climbing Jacksonville Center
Mon 10:43:46 AM 27.8539 -84.9603 277° West 386 444 33,400 650 Climbing Jacksonville Center
Mon 10:44:46 AM 27.8642 -85.0850 275° West 391 450 33,900 300 Climbing Jacksonville Center
Mon 10:45:46 AM 27.8786 -85.2097 277° West 391 450 34,000 50 Climbing Jacksonville Center
Mon 10:46:47 AM 27.9056 -85.3394 283° West 404 465 34,000  Level Jacksonville Center
Mon 10:47:46 AM 27.9469 -85.4603 291° West 418 481 34,000  Level Jacksonville Center
Mon 10:48:46 AM 27.9858 -85.6022 287° West 438 504 34,000  Level Jacksonville Center
Mon 10:49:46 AM 28.0269 -85.7256 291° West 445 512 34,000  Level Jacksonville Center
Mon 10:50:46 AM 28.0656 -85.8678 287° West 445 512 34,000  Level Jacksonville Center
Mon 10:51:46 AM 28.1042 -85.9958 289° West 445 512 34,000  Level Jacksonville Center
Mon 10:52:46 AM 28.1450 -86.1194 291° West 438 504 34,000  Level Jacksonville Center
Mon 10:53:46 AM 28.1833 -86.2525 288° West 438 504 34,000  Level Jacksonville Center
Mon 10:54:46 AM 28.2214 -86.3833 288° West 443 510 34,000  Level Jacksonville Center
Mon 10:55:46 AM 28.2636 -86.5192 289° West 448 516 34,000  Level Jacksonville Center
Mon 10:56:46 AM 28.2997 -86.6478 288° West 448 516 34,000  Level Jacksonville Center
Mon 10:57:46 AM 28.3372 -86.7836 287° West 448 516 34,000  Level Jacksonville Center
Mon 10:58:46 AM 28.3769 -86.9172 289° West 442 509 34,000  Level Jacksonville Center
Mon 10:59:46 AM 28.4206 -87.0581 289° West 448 516 34,000  Level Jacksonville Center
Mon 11:00:46 AM 28.4558 -87.1869 287° West 448 516 34,000  Level Jacksonville Center
Mon 11:01:46 AM 28.5031 -87.3308 291° West 454 522 34,000  Level Jacksonville Center
Mon 11:02:46 AM 28.5403 -87.4622 288° West 451 519 34,000  Level Jacksonville Center
Mon 11:03:18 AM 28.5747 -87.5336 299° West 452 520 34,000  Level Houston Center
Mon 11:04:20 AM 28.6339 -87.6569 299° West 448 516 34,000  Level Houston Center
Mon 11:05:22 AM 28.6919 -87.7797 298° West 443 510 34,000  Level Houston Center
Mon 11:06:24 AM 28.7497 -87.9011 299° West 436 502 34,000  Level Houston Center
Mon 11:07:26 AM 28.8061 -88.0222 298° West 436 502 34,000  Level Houston Center
Mon 11:08:28 AM 28.8725 -88.1614 299° West 427 491 34,000  Level Houston Center
Mon 11:09:31 AM 28.9278 -88.2803 298° West 427 491 34,000  Level Houston Center
Mon 11:10:33 AM 28.9825 -88.3992 298° West 426 490 34,000  Level Houston Center
Mon 11:11:35 AM 29.0378 -88.5172 298° West 425 489 34,000  Level Houston Center
Mon 11:12:37 AM 29.0928 -88.6339 298° West 420 483 34,000  Level Houston Center
Mon 11:13:39 AM 29.1575 -88.7744 298° West 420 483 34,000  Level Houston Center
Mon 11:14:41 AM 29.2117 -88.8936 298° West 420 483 34,000  Level Houston Center
Mon 11:15:44 AM 29.2664 -89.0125 298° West 420 483 34,000  Level Houston Center
Mon 11:16:46 AM 29.3211 -89.1297 298° West 420 483 34,000  Level Houston Center
Mon 11:17:48 AM 29.3758 -89.2494 298° West 420 483 34,000  Level Houston Center
Mon 11:18:50 AM 29.4289 -89.3692 297° West 420 483 34,000  Level Houston Center
Mon 11:19:52 AM 29.4936 -89.5131 297° West 420 483 34,000  Level Houston Center
Mon 11:20:54 AM 29.5475 -89.6353 297° West 428 493 34,000  Level Houston Center
Mon 11:21:57 AM 29.6019 -89.7542 298° West 425 489 34,000  Level Houston Center
Mon 11:22:59 AM 29.6561 -89.8739 298° West 424 488 34,000  Level Houston Center
Mon 11:24:01 AM 29.7097 -89.9936 297° West 423 487 34,000  Level Houston Center
Mon 11:25:03 AM 29.7642 -90.1153 297° West 423 487 34,000  Level Houston Center
Mon 11:26:05 AM 29.8172 -90.2350 297° West 423 487 34,000  Level Houston Center
Mon 11:27:07 AM 29.8808 -90.3797 297° West 422 486 34,000  Level Houston Center
Mon 11:28:09 AM 29.9353 -90.4994 298° West 422 486 34,000  Level Houston Center
Mon 11:29:12 AM 29.9883 -90.6206 297° West 422 486 34,000  Level Houston Center
Mon 11:30:14 AM 30.0408 -90.7403 297° West 421 484 34,000  Level Houston Center
Mon 11:31:16 AM 30.0944 -90.8606 297° West 419 482 34,000  Level Houston Center
Mon 11:32:18 AM 30.1461 -90.9800 297° West 418 481 34,000  Level Houston Center
Mon 11:33:20 AM 30.2081 -91.1244 296° West 418 481 34,000  Level Houston Center
Mon 11:34:22 AM 30.2606 -91.2433 297° West 417 480 34,000  Level Houston Center
Mon 11:35:25 AM 30.3125 -91.3653 296° West 419 482 34,000  Level Houston Center
Mon 11:36:27 AM 30.3658 -91.4850 297° West 419 482 34,000  Level Houston Center
Mon 11:37:29 AM 30.4169 -91.6067 296° West 420 483 34,000  Level Houston Center
Mon 11:38:31 AM 30.4739 -91.7394 296° West 420 483 34,000  Level Houston Center
Mon 11:39:33 AM 30.5261 -91.8608 297° West 420 483 34,000  Level Houston Center
Mon 11:40:35 AM 30.5775 -91.9831 296° West 420 483 34,000  Level Houston Center
Mon 11:41:38 AM 30.6406 -92.1297 297° West 421 484 34,000  Level Houston Center
Mon 11:42:40 AM 30.6908 -92.2522 296° West 421 484 34,000  Level Houston Center
Mon 11:43:42 AM 30.7419 -92.3736 296° West 420 483 34,000  Level Houston Center
Mon 11:44:44 AM 30.7942 -92.4958 296° West 420 483 34,000  Level Houston Center
Mon 11:45:46 AM 30.8444 -92.6181 296° West 418 481 34,000  Level Houston Center
Mon 11:46:49 AM 30.8961 -92.7389 297° West 418 481 34,000  Level Houston Center
Mon 11:47:51 AM 30.9458 -92.8611 295° West 417 480 34,000  Level Houston Center
Mon 11:48:53 AM 31.0050 -93.0025 296° West 415 478 34,000  Level Houston Center
Mon 11:49:55 AM 31.0539 -93.1236 295° West 414 476 34,000  Level Houston Center
Mon 11:50:57 AM 31.1036 -93.2428 296° West 414 476 34,000  Level Houston Center
Mon 11:51:59 AM 31.1533 -93.3617 296° West 413 475 34,000  Level Houston Center
Mon 11:53:02 AM 31.2117 -93.5058 295° West 412 474 34,000  Level Houston Center
Mon 11:54:04 AM 31.2608 -93.6269 295° West 412 474 34,000  Level Houston Center
Mon 11:55:06 AM 31.3078 -93.7433 295° West 412 474 34,000  Level Houston Center
Mon 11:56:08 AM 31.3572 -93.8647 296° West 413 475 34,000  Level Houston Center
Mon 11:57:10 AM 31.4147 -94.0106 295° West 413 475 34,000 242 Level Houston Center
Mon 11:58:12 AM 31.4644 -94.1314 296° West 413 475 34,500 1,008 Climbing Houston Center
Mon 11:59:15 AM 31.5103 -94.2453 295° West 392 451 36,100 1,440 Climbing Houston Center
Mon 12:00:17 PM 31.5522 -94.3500 295° West 362 417 37,500 919 Climbing Houston Center
Mon 12:01:19 PM 31.5919 -94.4500 295° West 344 396 38,000 242 Climbing Houston Center
Mon 12:02:21 PM 31.6322 -94.5492 296° West 343 395 38,000  Level Houston Center
Mon 12:03:23 PM 31.6800 -94.6719 295° West 344 396 38,000  Level Houston Center
Mon 12:04:26 PM 31.7206 -94.7742 295° West 346 398 38,000  Level Houston Center
Mon 12:05:28 PM 31.7608 -94.8775 295° West 346 398 38,000  Level Houston Center
Mon 12:06:30 PM 31.8014 -94.9811 295° West 348 400 38,000  Level Houston Center
Mon 12:07:32 PM 31.8406 -95.0831 294° West 347 399 38,000  Level Houston Center
Mon 12:08:34 PM 31.8889 -95.2053 295° West 346 398 38,000  Level Houston Center
Mon 12:09:36 PM 31.9283 -95.3069 295° West 345 397 38,000  Level Houston Center
Mon 12:10:54 PM 31.9772 -95.4308 295° West 341 392 38,000  Level Fort Worth Center
Mon 12:11:56 PM 32.0303 -95.5489 298° West 341 392 38,000  Level Fort Worth Center
Mon 12:12:58 PM 32.0725 -95.6464 297° West 340 391 38,000  Level Fort Worth Center
Mon 12:14:01 PM 32.1156 -95.7461 297° West 338 389 38,000  Level Fort Worth Center
Mon 12:15:02 PM 32.1592 -95.8461 297° West 342 394 38,000  Level Fort Worth Center
Mon 12:16:04 PM 32.2014 -95.9461 297° West 342 394 38,000  Level Fort Worth Center
Mon 12:17:06 PM 32.2456 -96.0458 298° West 342 394 38,000  Level Fort Worth Center
Mon 12:18:09 PM 32.2947 -96.1639 296° West 337 388 38,000  Level Fort Worth Center
Mon 12:19:11 PM 32.3386 -96.2633 298° West 339 390 38,000  Level Fort Worth Center
Mon 12:20:13 PM 32.3806 -96.3631 296° West 339 390 38,000  Level Fort Worth Center
Mon 12:21:15 PM 32.4231 -96.4628 297° West 339 390 38,000 339 Level Fort Worth Center
Mon 12:22:17 PM 32.4647 -96.5597 297° West 337 388 38,700 726 Climbing Fort Worth Center
Mon 12:23:19 PM 32.5039 -96.6525 297° West 321 369 39,500 581 Climbing Fort Worth Center
Mon 12:24:21 PM 32.5494 -96.7606 297° West 309 356 39,900 242 Climbing Fort Worth Center
Mon 12:25:23 PM 32.5878 -96.8503 297° West 307 353 40,000 48 Climbing Fort Worth Center
Mon 12:26:26 PM 32.6258 -96.9419 296° West 307 353 40,000  Level Fort Worth Center
Mon 12:27:28 PM 32.6656 -97.0339 297° West 310 357 40,000  Level Fort Worth Center
Mon 12:28:30 PM 32.7031 -97.1267 296° West 310 357 40,000  Level Fort Worth Center
Mon 12:29:32 PM 32.7428 -97.2200 297° West 312 359 40,000  Level Fort Worth Center
Mon 12:30:34 PM 32.7817 -97.3153 296° West 313 360 40,000  Level Fort Worth Center
Mon 12:31:36 PM 32.8219 -97.4117 296° West 319 367 40,000  Level Fort Worth Center
Mon 12:32:38 PM 32.8703 -97.5272 296° West 319 367 40,000  Level Fort Worth Center
Mon 12:33:40 PM 32.9100 -97.6233 296° West 319 367 40,000  Level Fort Worth Center
Mon 12:34:43 PM 32.9506 -97.7189 297° West 320 368 40,000 -48 Level Fort Worth Center
Mon 12:35:45 PM 32.9897 -97.8150 296° West 320 368 39,900  Descending Fort Worth Center
Mon 12:36:47 PM 33.0306 -97.9117 297° West 323 372 40,000 48 Climbing Fort Worth Center
Mon 12:37:49 PM 33.0694 -98.0069 296° West 322 371 40,000  Level Fort Worth Center
Mon 12:38:51 PM 33.1167 -98.1242 296° West 323 372 40,000  Level Fort Worth Center
Mon 12:39:53 PM 33.1564 -98.2222 296° West 324 373 40,000  Level Fort Worth Center
Mon 12:40:55 PM 33.1953 -98.3197 296° West 325 374 40,000  Level Fort Worth Center
Mon 12:41:58 PM 33.2336 -98.4172 295° West 325 374 40,000  Level Fort Worth Center
Mon 12:43:00 PM 33.2747 -98.5128 297° West 325 374 40,000  Level Fort Worth Center
Mon 12:44:02 PM 33.3128 -98.6108 295° West 325 374 40,000  Level Fort Worth Center
Mon 12:45:04 PM 33.3583 -98.7269 295° West 325 374 40,000  Level Fort Worth Center
Mon 12:46:06 PM 33.3981 -98.8256 296° West 326 375 40,000  Level Fort Worth Center
Mon 12:47:08 PM 33.4367 -98.9231 295° West 326 375 40,000  Level Fort Worth Center
Mon 12:48:10 PM 33.4769 -99.0211 296° West 326 375 40,000  Level Fort Worth Center
Mon 12:49:13 PM 33.5144 -99.1192 295° West 326 375 40,000  Level Fort Worth Center
Mon 12:50:14 PM 33.5614 -99.2369 296° West 326 375 40,000  Level Fort Worth Center
Mon 12:51:16 PM 33.5992 -99.3347 295° West 326 375 40,000  Level Fort Worth Center
Mon 12:52:19 PM 33.6383 -99.4319 296° West 326 375 40,000  Level Fort Worth Center
Mon 12:53:21 PM 33.6772 -99.5308 295° West 326 375 40,000  Level Fort Worth Center
Mon 12:54:23 PM 33.7156 -99.6308 295° West 327 376 40,000  Level Fort Worth Center
Mon 12:55:25 PM 33.7544 -99.7289 296° West 327 376 40,000  Level Fort Worth Center
Mon 12:56:27 PM 33.8014 -99.8497 295° West 328 377 40,000  Level Fort Worth Center
Mon 12:57:29 PM 33.8406 -99.9492 295° West 329 379 40,000  Level Fort Worth Center
Mon 12:58:31 PM 33.8789 -100.0503 295° West 331 381 40,000  Level Fort Worth Center
Mon 12:59:33 PM 33.9172 -100.1506 295° West 331 381 40,000  Level Fort Worth Center
Mon 01:00:35 PM 33.9558 -100.2525 295° West 331 381 40,000  Level Fort Worth Center
Mon 01:01:38 PM 34.0025 -100.3728 295° West 331 381 40,000  Level Fort Worth Center
Mon 01:02:40 PM 34.0408 -100.4750 294° West 332 382 40,000  Level Fort Worth Center
Mon 01:03:42 PM 34.0775 -100.5681 295° West 332 382 40,000  Level Fort Worth Center
Mon 01:04:44 PM 34.1225 -100.6917 294° West 333 383 40,000  Level Fort Worth Center
Mon 01:05:46 PM 34.1614 -100.7936 295° West 333 383 40,000  Level Fort Worth Center
Mon 01:06:48 PM 34.1989 -100.8961 294° West 333 383 40,000  Level Fort Worth Center
Mon 01:07:50 PM 34.2378 -100.9975 295° West 333 383 40,000  Level Fort Worth Center
Mon 01:08:52 PM 34.2750 -101.1006 294° West 333 383 40,000  Level Fort Worth Center
Mon 01:09:54 PM 34.3125 -101.2067 293° West 337 388 40,000  Level Fort Worth Center
Mon 01:10:57 PM 34.3597 -101.3328 294° West 339 390 40,000  Level Fort Worth Center
Mon 01:11:59 PM 34.3981 -101.4383 294° West 341 392 40,000  Level Fort Worth Center
Mon 01:13:01 PM 34.4372 -101.5431 294° West 342 394 40,000  Level Fort Worth Center
Mon 01:14:03 PM 34.4758 -101.6494 294° West 342 394 40,000  Level Fort Worth Center
Mon 01:15:05 PM 34.5142 -101.7544 294° West 341 392 40,000  Level Fort Worth Center
Mon 01:16:07 PM 34.5525 -101.8594 294° West 341 392 40,000  Level Fort Worth Center
Mon 01:17:09 PM 34.5903 -101.9633 294° West 337 388 40,000  Level Fort Worth Center
Mon 01:18:11 PM 34.6364 -102.0953 293° West 349 402 40,000  Level Fort Worth Center
Mon 01:19:13 PM 34.6756 -102.2011 294° West 347 399 40,000  Level Fort Worth Center
Mon 01:20:16 PM 34.7139 -102.3081 294° West 345 397 40,000  Level Fort Worth Center
Mon 01:21:18 PM 34.7542 -102.4200 294° West 345 397 40,000  Level Fort Worth Center
Mon 01:22:20 PM 34.7903 -102.5217 293° West 345 397 40,000  Level Fort Worth Center
Mon 01:23:22 PM 34.8286 -102.6292 294° West 345 397 40,000  Level Fort Worth Center
Mon 01:24:24 PM 34.8747 -102.7594 293° West 345 397 40,000  Level Fort Worth Center
Mon 01:25:26 PM 34.9125 -102.8686 293° West 347 399 40,000  Level Fort Worth Center
Mon 01:26:28 PM 34.9514 -102.9775 294° West 350 403 40,000  Level Fort Worth Center
Mon 01:27:30 PM 34.9903 -103.0881 293° West 350 403 40,000  Level Fort Worth Center
Mon 01:28:32 PM 35.0283 -103.1986 293° West 351 404 40,000  Level Fort Worth Center
Mon 01:29:35 PM 35.0678 -103.3097 293° West 352 405 40,000  Level Fort Worth Center
Mon 01:30:52 PM 35.1183 -103.4581 293° West 355 409 40,000  Level Albuquerque Center
Mon 01:31:55 PM 35.1567 -103.5697 293° West 355 409 40,000  Level Albuquerque Center
Mon 01:32:57 PM 35.2028 -103.7019 293° West 355 409 40,000  Level Albuquerque Center
Mon 01:33:59 PM 35.2408 -103.8147 292° West 355 409 40,000  Level Albuquerque Center
Mon 01:35:01 PM 35.2803 -103.9311 293° West 358 412 40,000  Level Albuquerque Center
Mon 01:36:03 PM 35.3172 -104.0378 293° West 370 426 40,000  Level Albuquerque Center
Mon 01:37:05 PM 35.3578 -104.1572 293° West 363 418 40,000  Level Albuquerque Center
Mon 01:38:07 PM 35.4017 -104.2903 292° West 362 417 40,000  Level Albuquerque Center
Mon 01:39:09 PM 35.4386 -104.4042 292° West 362 417 40,000  Level Albuquerque Center
Mon 01:40:11 PM 35.4764 -104.5181 292° West 362 417 40,000  Level Albuquerque Center
Mon 01:41:13 PM 35.5144 -104.6333 292° West 362 417 40,000  Level Albuquerque Center
Mon 01:42:15 PM 35.5531 -104.7500 292° West 364 419 40,000  Level Albuquerque Center
Mon 01:43:17 PM 35.5925 -104.8694 292° West 371 427 40,000  Level Albuquerque Center
Mon 01:44:19 PM 35.6381 -105.0050 292° West 370 426 40,000  Level Albuquerque Center
Mon 01:45:21 PM 35.6753 -105.1214 292° West 367 422 40,000  Level Albuquerque Center
Mon 01:46:23 PM 35.7136 -105.2361 292° West 363 418 40,000  Level Albuquerque Center
Mon 01:47:26 PM 35.7517 -105.3508 292° West 363 418 40,000  Level Albuquerque Center
Mon 01:48:28 PM 35.7875 -105.4678 291° West 362 417 40,000  Level Albuquerque Center
Mon 01:49:30 PM 35.8256 -105.5822 292° West 363 418 40,000  Level Albuquerque Center
Mon 01:50:32 PM 35.8619 -105.6969 291° West 364 419 40,000  Level Albuquerque Center
Mon 01:51:34 PM 35.9050 -105.8281 292° West 364 419 40,000  Level Albuquerque Center
Mon 01:52:36 PM 35.9408 -105.9414 291° West 363 418 40,000  Level Albuquerque Center
Mon 01:53:38 PM 35.9764 -106.0536 291° West 359 413 40,000  Level Albuquerque Center
Mon 01:54:40 PM 36.0200 -106.1903 292° West 358 412 40,000  Level Albuquerque Center
Mon 01:55:42 PM 36.0553 -106.3047 291° West 358 412 40,000 -48 Level Albuquerque Center
Mon 01:56:44 PM 36.0908 -106.4186 291° West 358 412 39,900  Descending Albuquerque Center
Mon 01:57:46 PM 36.1275 -106.5317 292° West 358 412 40,000 48 Climbing Albuquerque Center
Mon 01:58:49 PM 36.1661 -106.6594 291° West 357 411 40,000  Level Albuquerque Center
Mon 01:59:51 PM 36.2006 -106.7675 292° West 356 410 40,000  Level Albuquerque Center
Mon 02:00:53 PM 36.2392 -106.8958 290° West 356 410 40,000  Level Albuquerque Center
Mon 02:01:55 PM 36.2736 -107.0053 291° West 356 410 40,000  Level Albuquerque Center
Mon 02:02:57 PM 36.3125 -107.1325 291° West 356 410 40,000  Level Albuquerque Center
Mon 02:03:59 PM 36.3447 -107.2417 290° West 356 410 40,000  Level Albuquerque Center
Mon 02:05:01 PM 36.3847 -107.3719 291° West 357 411 40,000  Level Albuquerque Center
Mon 02:06:03 PM 36.4181 -107.4833 290° West 358 412 40,000  Level Albuquerque Center
Mon 02:07:05 PM 36.4572 -107.6150 290° West 359 413 40,000  Level Albuquerque Center
Mon 02:08:07 PM 36.4911 -107.7269 291° West 361 415 40,000  Level Albuquerque Center
Mon 02:09:09 PM 36.5311 -107.8594 291° West 365 420 40,000  Level Albuquerque Center
Mon 02:10:12 PM 36.5642 -107.9747 290° West 366 421 40,000  Level Albuquerque Center
Mon 02:11:40 PM 36.6144 -108.1433 290° West 368 423 40,000  Level Denver Center
Mon 02:12:42 PM 36.6531 -108.2761 290° West 368 423 40,000  Level Denver Center
Mon 02:13:44 PM 36.6864 -108.3911 290° West 368 423 40,000  Level Denver Center
Mon 02:14:46 PM 36.7250 -108.5244 290° West 369 425 40,000  Level Denver Center
Mon 02:15:48 PM 36.7589 -108.6397 290° West 369 425 40,000  Level Denver Center
Mon 02:16:50 PM 36.7972 -108.7750 290° West 369 425 40,000  Level Denver Center
Mon 02:17:51 PM 36.8314 -108.8911 290° West 373 429 40,000  Level Denver Center
Mon 02:18:53 PM 36.8689 -109.0269 289° West 371 427 40,000  Level Denver Center
Mon 02:19:55 PM 36.9036 -109.1431 291° West 372 428 40,000  Level Denver Center
Mon 02:20:57 PM 36.9425 -109.2800 290° West 373 429 40,000  Level Denver Center
Mon 02:21:58 PM 36.9750 -109.3958 289° West 373 429 40,000  Level Denver Center
Mon 02:23:00 PM 37.0119 -109.5342 289° West 373 429 40,000  Level Denver Center
Mon 02:24:02 PM 37.0450 -109.6525 289° West 374 430 40,000  Level Denver Center
Mon 02:26:05 PM 37.1167 -109.9058 290° West 374 430 40,000  Level Denver Center
Mon 02:27:07 PM 37.1483 -110.0250 288° West 374 430 40,000  Level Denver Center
Mon 02:28:08 PM 37.1758 -110.1228 289° West 374 430 40,000  Level Denver Center
Mon 02:29:10 PM 37.2194 -110.2803 289° West 374 430 40,000  Level Denver Center
Mon 02:30:12 PM 37.2517 -110.4025 288° West 371 427 40,000  Level Denver Center
Mon 02:31:13 PM 37.2844 -110.5250 289° West 371 427 40,000  Level Denver Center
Mon 02:32:15 PM 37.3169 -110.6450 289° West 368 423 40,000  Level Denver Center
Mon 02:33:17 PM 37.3556 -110.7914 288° West 368 423 40,000  Level Denver Center
Mon 02:34:18 PM 37.3883 -110.9117 289° West 367 422 40,000  Level Denver Center
Mon 02:35:20 PM 37.4208 -111.0331 289° West 367 422 40,000  Level Denver Center
Mon 02:36:21 PM 37.4522 -111.1525 288° West 365 420 40,000  Level Denver Center
Mon 02:37:23 PM 37.4839 -111.2739 288° West 364 419 40,000  Level Denver Center
Mon 02:38:25 PM 37.5153 -111.3939 288° West 364 419 40,000  Level Denver Center
Mon 02:39:26 PM 37.5469 -111.5158 288° West 365 420 40,000  Level Denver Center
Mon 02:40:28 PM 37.5850 -111.6622 288° West 367 422 40,000  Level Denver Center
Mon 02:41:29 PM 37.6161 -111.7850 288° West 367 422 40,000  Level Denver Center
Mon 02:42:43 PM 37.6489 -111.9075 289° West 368 423 40,000  Level Denver Center
Mon 02:43:41 PM 37.6861 -112.0556 288° West 369 425 40,000  Level Salt Lake Center
Mon 02:44:43 PM 37.7175 -112.1772 288° West 369 425 40,000  Level Salt Lake Center
Mon 02:45:45 PM 37.7486 -112.3006 288° West 369 425 40,000  Level Salt Lake Center
Mon 02:46:46 PM 37.7794 -112.4236 288° West 369 425 40,000  Level Salt Lake Center
Mon 02:47:48 PM 37.8092 -112.5467 287° West 369 425 40,000  Level Salt Lake Center
Mon 02:48:50 PM 37.8461 -112.6939 288° West 369 425 40,000  Level Salt Lake Center
Mon 02:49:52 PM 37.8758 -112.8172 287° West 369 425 40,000  Level Salt Lake Center
Mon 02:50:54 PM 37.9053 -112.9394 287° West 369 425 40,000  Level Salt Lake Center
Mon 02:51:55 PM 37.9339 -113.0606 287° West 367 422 40,000  Level Salt Lake Center
Mon 02:52:57 PM 37.9636 -113.1831 287° West 367 422 40,000  Level Salt Lake Center
Mon 02:53:59 PM 37.9931 -113.3053 287° West 367 422 40,000  Level Salt Lake Center
Mon 02:55:01 PM 38.0283 -113.4522 287° West 366 421 40,000  Level Salt Lake Center
Mon 02:56:02 PM 38.0578 -113.5747 287° West 366 421 40,000  Level Salt Lake Center
Mon 02:57:04 PM 38.0864 -113.6975 287° West 365 420 40,000  Level Salt Lake Center
Mon 02:58:06 PM 38.1161 -113.8208 287° West 365 420 40,000  Level Salt Lake Center
Mon 02:59:07 PM 38.1447 -113.9436 287° West 366 421 40,000  Level Salt Lake Center
Mon 03:00:09 PM 38.1736 -114.0661 287° West 365 420 40,000  Level Salt Lake Center
Mon 03:01:11 PM 38.2083 -114.2142 287° West 364 419 40,000  Level Salt Lake Center
Mon 03:02:12 PM 38.2361 -114.3367 286° West 364 419 40,000  Level Salt Lake Center
Mon 03:03:14 PM 38.2581 -114.4608 283° West 363 418 40,000  Level Salt Lake Center
Mon 03:04:15 PM 38.2697 -114.5889 277° West 363 418 40,000  Level Salt Lake Center
Mon 03:05:17 PM 38.2825 -114.7172 277° West 366 421 40,000  Level Salt Lake Center
Mon 03:06:19 PM 38.2956 -114.8450 277° West 365 420 40,000  Level Salt Lake Center
Mon 03:07:20 PM 38.3081 -114.9717 277° West 365 420 40,000  Level Salt Lake Center
Mon 03:09:13 PM 38.3314 -115.2222 277° West 363 418 40,000  Level Oakland Center
Mon 03:10:14 PM 38.3433 -115.3514 277° West 364 419 40,000  Level Oakland Center
Mon 03:11:27 PM 38.3581 -115.5042 277° West 365 420 40,000  Level Salt Lake Center
Mon 03:12:28 PM 38.3703 -115.6333 277° West 366 421 40,000  Level Salt Lake Center
Mon 03:13:30 PM 38.3814 -115.7619 276° West 366 421 40,000  Level Salt Lake Center
Mon 03:14:32 PM 38.3928 -115.8914 276° West 366 421 40,000  Level Salt Lake Center
Mon 03:15:33 PM 38.4072 -116.0469 277° West 368 423 40,000  Level Salt Lake Center
Mon 03:16:35 PM 38.4186 -116.1767 276° West 368 423 40,000  Level Salt Lake Center
Mon 03:17:37 PM 38.3844 -116.2994 250° West 364 419 40,000  Level Salt Lake Center
Mon 03:18:25 PM 38.3453 -116.3925 242° Southwest 368 423 40,000  Level Oakland Center
Mon 03:19:26 PM 38.2997 -116.5097 244° Southwest 369 425 40,000  Level Oakland Center
Mon 03:20:27 PM 38.2553 -116.6286 245° Southwest 369 425 40,000  Level Oakland Center
Mon 03:21:29 PM 38.2092 -116.7469 244° Southwest 369 425 40,000  Level Oakland Center
Mon 03:22:30 PM 38.1631 -116.8650 244° Southwest 372 428 40,000  Level Oakland Center
Mon 03:23:31 PM 38.1175 -116.9836 244° Southwest 372 428 40,000  Level Oakland Center
Mon 03:24:33 PM 38.0708 -117.1014 243° Southwest 369 425 40,000  Level Oakland Center
Mon 03:25:50 PM 38.0058 -117.2675 244° Southwest 367 422 40,000  Level Salt Lake Center
Mon 03:26:35 PM 37.9772 -117.3383 243° Southwest 368 423 40,000  Level Oakland Center
Mon 03:27:37 PM 37.9317 -117.4536 243° Southwest 368 423 40,000  Level Oakland Center
Mon 03:28:38 PM 37.8853 -117.5697 243° Southwest 365 420 40,000  Level Oakland Center
Mon 03:29:40 PM 37.8297 -117.7072 243° Southwest 366 421 40,000  Level Oakland Center
Mon 03:30:41 PM 37.7842 -117.8225 243° Southwest 366 421 40,000  Level Oakland Center
Mon 03:31:42 PM 37.7367 -117.9372 242° Southwest 367 422 40,000  Level Oakland Center
Mon 03:32:43 PM 37.6903 -118.0517 243° Southwest 367 422 40,000  Level Oakland Center
Mon 03:33:45 PM 37.6439 -118.1647 243° Southwest 366 421 40,000 -537 Level Oakland Center
Mon 03:34:46 PM 37.5983 -118.2781 243° Southwest 364 419 38,900 -1,475 Descending Oakland Center
Mon 03:35:47 PM 37.5528 -118.3889 243° Southwest 360 414 37,000 -1,805 Descending Oakland Center
Mon 03:36:49 PM 37.5106 -118.4919 243° Southwest 335 386 35,200 -1,756 Descending Oakland Center
Mon 03:37:50 PM 37.4689 -118.5944 243° Southwest 329 379 33,400 -1,820 Descending Oakland Center
Mon 03:38:51 PM 37.4264 -118.6975 243° Southwest 330 380 31,500 -1,659 Descending Oakland Center
Mon 03:39:53 PM 37.3858 -118.8189 247° West 337 388 30,000 -732 Descending Oakland Center
Mon 03:40:54 PM 37.3756 -118.9294 263° West 326 375 30,000 -639 Level Oakland Center
Mon 03:41:55 PM 37.3647 -119.0419 263° West 323 372 28,700 -1,366 Descending Oakland Center
Mon 03:42:57 PM 37.3525 -119.1589 263° West 333 383 27,200 -1,463 Descending Oakland Center
Mon 03:43:58 PM 37.3394 -119.2775 262° West 340 391 25,700 -1,475 Descending Oakland Center
Mon 03:44:59 PM 37.3269 -119.4017 263° West 352 405 24,200 -1,659 Descending Oakland Center
Mon 03:46:01 PM 37.3111 -119.5572 263° West 371 427 22,300 -1,659 Descending Oakland Center
Mon 03:47:02 PM 37.2975 -119.6878 263° West 375 432 20,800 -1,131 Descending Oakland Center
Mon 03:48:03 PM 37.2842 -119.8114 262° West 364 419 20,000 -390 Descending Oakland Center
Mon 03:49:05 PM 37.2714 -119.9294 262° West 358 412 20,000  Level Oakland Center
Mon 03:50:06 PM 37.2578 -120.0536 262° West 358 412 20,000 -197 Level Oakland Center
Mon 03:51:07 PM 37.2442 -120.1789 262° West 359 413 19,600 -1,024 Descending Oakland Center
Mon 03:52:09 PM 37.2300 -120.3064 262° West 363 418 17,900 -1,964 Descending Oakland Center
Mon 03:52:57 PM 37.2167 -120.4333 263° West 363 418 16,000 -2,000 Descending Northern Cal TRACON
Mon 03:53:57 PM 37.1833 -120.5333 247° West 367 422 14,300 -1,650 Descending Northern Cal TRACON
Mon 03:54:57 PM 37.1667 -120.6500 260° West 316 364 12,700 -1,600 Descending Northern Cal TRACON
Mon 03:55:57 PM 37.1500 -120.7500 258° West 310 357 11,100 -1,350 Descending Northern Cal TRACON
Mon 03:56:57 PM 37.1167 -120.8667 250° West 321 369 10,000 -550 Descending Northern Cal TRACON
Mon 03:57:57 PM 37.1000 -120.9667 258° West 300 345 10,000  Level Northern Cal TRACON
Mon 03:58:57 PM 37.0833 -121.0500 256° West 268 308 10,000  Level Northern Cal TRACON
Mon 03:59:57 PM 37.0833 -121.1500 270° West 277 319 10,000  Level Northern Cal TRACON
Mon 04:01:21 PM 37.0969 -121.2822 277° West 299 344 10,000  Level Oakland Center
Mon 04:02:25 PM 37.1014 -121.3903 273° West 308 354 10,000 -627 Level Oakland Center
Mon 04:03:35 PM 37.1072 -121.4997 274° West 267 307 8,600 -1,455 Descending Oakland Center
Mon 04:04:37 PM 37.1106 -121.6072 272° West 258 297 6,800 -1,268 Descending Oakland Center
Mon 04:05:38 PM 37.1136 -121.7025 272° West 267 307 6,000 -393 Descending Oakland Center
Mon 04:06:39 PM 37.1178 -121.7753 274° West 236 272 6,000  Level Oakland Center
Mon 04:07:41 PM 37.1631 -121.8275 317° Northwest 224 258 6,000 -195 Level Oakland Center
Mon 04:08:42 PM 37.2103 -121.8786 319° Northwest 221 254 5,600 -639 Descending Oakland Center
Mon 04:09:43 PM 37.2567 -121.9317 318° Northwest 226 260 4,700 -984 Descending Oakland Center
Mon 04:10:44 PM 37.2958 -121.9783 317° Northwest 209 241 3,600 -829 Descending Oakland Center
Mon 04:11:46 PM 37.3372 -122.0219 320° Northwest 200 230 3,000 -293 Descending Oakland Center
Mon 04:12:47 PM 37.3781 -122.0628 322° Northwest 194 223 3,000 -366 Level Oakland Center
Mon 04:13:57 PM 37.4333 -122.1167 322° Northwest 196 226 2,200 -462 Descending Northern Cal TRACON
Mon 04:14:57 PM 37.4833 -122.1000 15° North 184 212 2,000 -100 Descending Northern Cal TRACON
Mon 04:15:57 PM 37.4667 -122.0500 113° Southeast 150 173 2,000  Level Northern Cal TRACON
Mon 04:16:57 PM 37.4500 -122.0167 122° Southeast 139 160 2,000 -400 Level Northern Cal TRACON
Mon 04:18:57 PM 37.4000 -121.9667 142° Southeast 100 115 800 -600 Descending Northern Cal TRACON
Mon 04:19:57 PM 37.3667 -121.9500 158° South 104 120 200 -600 Descending Northern Cal TRACON

Login

Don't have an account? Register now (free) for customized features, flight alerts, and more!